< < Back
Terminal Aerodrome Forecast


Current Version              Previous Versions:   1  2  3  4  5  6  7  8  9  

Terminal Aerodrome Forecast

006
FTUS44 KMRX 211725
TAFCHA
TAF
KCHA 211725Z 2118/2218 26010G18KT P6SM VCTS SCT040CB BKN250
     FM220000 32005KT P6SM SCT080 BKN250
     FM221400 36008KT P6SM SCT035=



Latest METAR

275
SAUS80 KWBC 212200 RRB
MTRCHA
METAR KCHA 212153Z 23005KT 10SM SCT050 SCT085 SCT110 BKN250 29/18 A2991
RMK AO2 SLP122 T02940178


USA.gov is the U.S. government's official web portal to all federal, state and local government web resources and services.